sensor_id;sensor_type;location;lat;lon;timestamp;temperature;humidity
39021;DHT22;25188;51.958;5.842;2024-01-07T00:00:21;2.70;99.90
39021;DHT22;25188;51.958;5.842;2024-01-07T00:02:47;2.70;99.90
39021;DHT22;25188;51.958;5.842;2024-01-07T00:05:12;2.70;99.90
39021;DHT22;25188;51.958;5.842;2024-01-07T00:07:39;2.70;99.90
39021;DHT22;25188;51.958;5.842;2024-01-07T00:10:05;2.70;99.90
39021;DHT22;25188;51.958;5.842;2024-01-07T00:12:31;2.70;99.90
39021;DHT22;25188;51.958;5.842;2024-01-07T00:14:57;2.70;99.90
39021;DHT22;25188;51.958;5.842;2024-01-07T00:17:23;2.60;99.90
39021;DHT22;25188;51.958;5.842;2024-01-07T00:19:49;2.70;99.90
39021;DHT22;25188;51.958;5.842;2024-01-07T00:22:15;2.60;99.90
39021;DHT22;25188;51.958;5.842;2024-01-07T00:24:41;2.60;99.90
39021;DHT22;25188;51.958;5.842;2024-01-07T00:27:07;2.60;99.90
39021;DHT22;25188;51.958;5.842;2024-01-07T00:29:33;2.60;99.90
39021;DHT22;25188;51.958;5.842;2024-01-07T00:32:01;2.60;99.90
39021;DHT22;25188;51.958;5.842;2024-01-07T00:34:27;2.70;99.90
39021;DHT22;25188;51.958;5.842;2024-01-07T00:36:52;2.60;99.90
39021;DHT22;25188;51.958;5.842;2024-01-07T00:39:18;2.70;99.90
39021;DHT22;25188;51.958;5.842;2024-01-07T00:41:44;2.70;99.90
39021;DHT22;25188;51.958;5.842;2024-01-07T00:44:10;2.60;99.90
39021;DHT22;25188;51.958;5.842;2024-01-07T00:46:35;2.70;99.90
39021;DHT22;25188;51.958;5.842;2024-01-07T00:49:01;2.60;99.90
39021;DHT22;25188;51.958;5.842;2024-01-07T00:51:26;2.60;99.90
39021;DHT22;25188;51.958;5.842;2024-01-07T00:53:52;2.70;99.90
39021;DHT22;25188;51.958;5.842;2024-01-07T00:56:18;2.60;99.90
39021;DHT22;25188;51.958;5.842;2024-01-07T00:58:43;2.70;99.90
39021;DHT22;25188;51.958;5.842;2024-01-07T01:01:09;2.70;99.90
39021;DHT22;25188;51.958;5.842;2024-01-07T01:03:35;2.70;99.90
39021;DHT22;25188;51.958;5.842;2024-01-07T01:06:00;2.70;99.90
39021;DHT22;25188;51.958;5.842;2024-01-07T01:08:27;2.70;99.90
39021;DHT22;25188;51.958;5.842;2024-01-07T01:10:53;2.70;99.90
39021;DHT22;25188;51.958;5.842;2024-01-07T01:13:19;2.70;99.90
39021;DHT22;25188;51.958;5.842;2024-01-07T01:15:45;2.70;99.90
39021;DHT22;25188;51.958;5.842;2024-01-07T01:18:10;2.70;99.90
39021;DHT22;25188;51.958;5.842;2024-01-07T01:20:36;2.80;99.90
39021;DHT22;25188;51.958;5.842;2024-01-07T01:23:02;2.70;99.90
39021;DHT22;25188;51.958;5.842;2024-01-07T01:25:27;2.70;99.90
39021;DHT22;25188;51.958;5.842;2024-01-07T01:27:55;2.70;99.90
39021;DHT22;25188;51.958;5.842;2024-01-07T01:30:21;2.70;99.90
39021;DHT22;25188;51.958;5.842;2024-01-07T01:32:47;2.70;99.90
39021;DHT22;25188;51.958;5.842;2024-01-07T01:35:13;2.80;99.90
39021;DHT22;25188;51.958;5.842;2024-01-07T01:37:38;2.80;99.90
39021;DHT22;25188;51.958;5.842;2024-01-07T01:40:04;2.70;99.90
39021;DHT22;25188;51.958;5.842;2024-01-07T01:42:30;2.70;99.90
39021;DHT22;25188;51.958;5.842;2024-01-07T01:44:56;2.80;99.90
39021;DHT22;25188;51.958;5.842;2024-01-07T01:47:25;2.70;99.90
39021;DHT22;25188;51.958;5.842;2024-01-07T01:49:50;2.70;99.90
39021;DHT22;25188;51.958;5.842;2024-01-07T01:52:16;2.70;99.90
39021;DHT22;25188;51.958;5.842;2024-01-07T01:54:42;2.80;99.90
39021;DHT22;25188;51.958;5.842;2024-01-07T01:57:15;2.80;99.90
39021;DHT22;25188;51.958;5.842;2024-01-07T01:59:43;2.80;99.90
39021;DHT22;25188;51.958;5.842;2024-01-07T02:02:08;2.70;99.90
39021;DHT22;25188;51.958;5.842;2024-01-07T02:04:34;2.70;99.90
39021;DHT22;25188;51.958;5.842;2024-01-07T02:07:00;2.80;99.90
39021;DHT22;25188;51.958;5.842;2024-01-07T02:09:26;2.70;99.90
39021;DHT22;25188;51.958;5.842;2024-01-07T02:12:04;2.80;99.90
39021;DHT22;25188;51.958;5.842;2024-01-07T02:14:30;2.70;99.90
39021;DHT22;25188;51.958;5.842;2024-01-07T02:16:56;2.70;99.90
39021;DHT22;25188;51.958;5.842;2024-01-07T02:19:22;2.70;99.90
39021;DHT22;25188;51.958;5.842;2024-01-07T02:21:50;2.70;99.90
39021;DHT22;25188;51.958;5.842;2024-01-07T02:24:16;2.70;99.90
39021;DHT22;25188;51.958;5.842;2024-01-07T02:26:42;2.70;99.90
39021;DHT22;25188;51.958;5.842;2024-01-07T02:29:08;2.70;99.90
39021;DHT22;25188;51.958;5.842;2024-01-07T02:31:33;2.70;99.90
39021;DHT22;25188;51.958;5.842;2024-01-07T02:33:59;2.70;99.90
39021;DHT22;25188;51.958;5.842;2024-01-07T02:36:25;2.70;99.90
39021;DHT22;25188;51.958;5.842;2024-01-07T02:38:50;2.70;99.90
39021;DHT22;25188;51.958;5.842;2024-01-07T02:41:16;2.70;99.90
39021;DHT22;25188;51.958;5.842;2024-01-07T02:43:42;2.70;99.90
39021;DHT22;25188;51.958;5.842;2024-01-07T02:46:08;2.70;99.90
39021;DHT22;25188;51.958;5.842;2024-01-07T02:48:34;2.70;99.90
39021;DHT22;25188;51.958;5.842;2024-01-07T02:51:00;2.70;99.90
39021;DHT22;25188;51.958;5.842;2024-01-07T02:53:28;2.60;99.90
39021;DHT22;25188;51.958;5.842;2024-01-07T02:55:54;2.60;99.90
39021;DHT22;25188;51.958;5.842;2024-01-07T02:58:20;2.60;99.90
39021;DHT22;25188;51.958;5.842;2024-01-07T03:00:45;2.60;99.90
39021;DHT22;25188;51.958;5.842;2024-01-07T03:03:11;2.60;99.90
39021;DHT22;25188;51.958;5.842;2024-01-07T03:05:37;2.60;99.90
39021;DHT22;25188;51.958;5.842;2024-01-07T03:08:02;2.60;99.90
39021;DHT22;25188;51.958;5.842;2024-01-07T03:10:28;2.60;99.90
39021;DHT22;25188;51.958;5.842;2024-01-07T03:12:54;2.60;99.90
39021;DHT22;25188;51.958;5.842;2024-01-07T03:15:19;2.50;99.90
39021;DHT22;25188;51.958;5.842;2024-01-07T03:17:46;2.60;99.90
39021;DHT22;25188;51.958;5.842;2024-01-07T03:20:11;2.60;99.90
39021;DHT22;25188;51.958;5.842;2024-01-07T03:22:37;2.50;99.90
39021;DHT22;25188;51.958;5.842;2024-01-07T03:25:03;2.50;99.90
39021;DHT22;25188;51.958;5.842;2024-01-07T03:27:29;2.50;99.90
39021;DHT22;25188;51.958;5.842;2024-01-07T03:29:55;2.50;99.90
39021;DHT22;25188;51.958;5.842;2024-01-07T03:32:20;2.50;99.90
39021;DHT22;25188;51.958;5.842;2024-01-07T03:34:46;2.50;99.90
39021;DHT22;25188;51.958;5.842;2024-01-07T03:37:11;2.50;99.90
39021;DHT22;25188;51.958;5.842;2024-01-07T03:39:37;2.50;99.90
39021;DHT22;25188;51.958;5.842;2024-01-07T03:42:03;2.50;99.90
39021;DHT22;25188;51.958;5.842;2024-01-07T03:44:28;2.50;99.90
39021;DHT22;25188;51.958;5.842;2024-01-07T03:46:54;2.50;99.90
39021;DHT22;25188;51.958;5.842;2024-01-07T03:49:20;2.50;99.90
39021;DHT22;25188;51.958;5.842;2024-01-07T03:51:46;2.50;99.90
39021;DHT22;25188;51.958;5.842;2024-01-07T03:54:11;2.50;99.90
39021;DHT22;25188;51.958;5.842;2024-01-07T03:56:37;2.60;99.90
39021;DHT22;25188;51.958;5.842;2024-01-07T03:59:03;2.50;99.90
39021;DHT22;25188;51.958;5.842;2024-01-07T04:01:28;2.50;99.90
39021;DHT22;25188;51.958;5.842;2024-01-07T04:03:54;2.50;99.90
39021;DHT22;25188;51.958;5.842;2024-01-07T04:06:20;2.50;99.90
39021;DHT22;25188;51.958;5.842;2024-01-07T04:08:46;2.50;99.90
39021;DHT22;25188;51.958;5.842;2024-01-07T04:11:11;2.50;99.90
39021;DHT22;25188;51.958;5.842;2024-01-07T04:13:37;2.50;99.90
39021;DHT22;25188;51.958;5.842;2024-01-07T04:16:03;2.50;99.90
39021;DHT22;25188;51.958;5.842;2024-01-07T04:18:29;2.50;99.90
39021;DHT22;25188;51.958;5.842;2024-01-07T04:20:55;2.50;99.90
39021;DHT22;25188;51.958;5.842;2024-01-07T04:23:20;2.40;99.90
39021;DHT22;25188;51.958;5.842;2024-01-07T04:25:46;2.40;99.90
39021;DHT22;25188;51.958;5.842;2024-01-07T04:28:12;2.40;99.90
39021;DHT22;25188;51.958;5.842;2024-01-07T04:30:37;2.40;99.90
39021;DHT22;25188;51.958;5.842;2024-01-07T04:33:03;2.40;99.90
39021;DHT22;25188;51.958;5.842;2024-01-07T04:35:29;2.40;99.90
39021;DHT22;25188;51.958;5.842;2024-01-07T04:37:54;2.30;99.90
39021;DHT22;25188;51.958;5.842;2024-01-07T04:40:20;2.40;99.90
39021;DHT22;25188;51.958;5.842;2024-01-07T04:42:46;2.40;99.90
39021;DHT22;25188;51.958;5.842;2024-01-07T04:45:11;2.40;99.90
39021;DHT22;25188;51.958;5.842;2024-01-07T04:47:37;2.30;99.90
39021;DHT22;25188;51.958;5.842;2024-01-07T04:50:03;2.30;99.90
39021;DHT22;25188;51.958;5.842;2024-01-07T04:52:29;2.30;99.90
39021;DHT22;25188;51.958;5.842;2024-01-07T04:54:56;2.30;99.90
39021;DHT22;25188;51.958;5.842;2024-01-07T04:57:22;2.40;99.90
39021;DHT22;25188;51.958;5.842;2024-01-07T04:59:49;2.30;99.90
39021;DHT22;25188;51.958;5.842;2024-01-07T05:02:15;2.30;99.90
39021;DHT22;25188;51.958;5.842;2024-01-07T05:04:41;2.30;99.90
39021;DHT22;25188;51.958;5.842;2024-01-07T05:07:07;2.30;99.90
39021;DHT22;25188;51.958;5.842;2024-01-07T05:09:33;2.30;99.90
39021;DHT22;25188;51.958;5.842;2024-01-07T05:11:59;2.30;99.90
39021;DHT22;25188;51.958;5.842;2024-01-07T05:14:25;2.30;99.90
39021;DHT22;25188;51.958;5.842;2024-01-07T05:16:52;2.20;99.90
39021;DHT22;25188;51.958;5.842;2024-01-07T05:19:18;2.20;99.90
39021;DHT22;25188;51.958;5.842;2024-01-07T05:21:44;2.30;99.90
39021;DHT22;25188;51.958;5.842;2024-01-07T05:24:09;2.30;99.90
39021;DHT22;25188;51.958;5.842;2024-01-07T05:26:43;2.30;99.90
39021;DHT22;25188;51.958;5.842;2024-01-07T05:29:10;2.30;99.90
39021;DHT22;25188;51.958;5.842;2024-01-07T05:31:37;2.20;99.90
39021;DHT22;25188;51.958;5.842;2024-01-07T05:34:02;2.20;99.90
39021;DHT22;25188;51.958;5.842;2024-01-07T05:36:28;2.20;99.90
39021;DHT22;25188;51.958;5.842;2024-01-07T05:38:55;2.20;99.90
39021;DHT22;25188;51.958;5.842;2024-01-07T05:41:21;2.20;99.90
39021;DHT22;25188;51.958;5.842;2024-01-07T05:43:47;2.20;99.90
39021;DHT22;25188;51.958;5.842;2024-01-07T05:46:13;2.20;99.90
39021;DHT22;25188;51.958;5.842;2024-01-07T05:48:47;2.20;99.90
39021;DHT22;25188;51.958;5.842;2024-01-07T05:51:13;2.20;99.90
39021;DHT22;25188;51.958;5.842;2024-01-07T05:53:40;2.20;99.90
39021;DHT22;25188;51.958;5.842;2024-01-07T05:56:06;2.20;99.90
39021;DHT22;25188;51.958;5.842;2024-01-07T05:58:32;2.20;99.90
39021;DHT22;25188;51.958;5.842;2024-01-07T06:00:58;2.20;99.90
39021;DHT22;25188;51.958;5.842;2024-01-07T06:03:23;2.20;99.90
39021;DHT22;25188;51.958;5.842;2024-01-07T06:05:49;2.20;99.90
39021;DHT22;25188;51.958;5.842;2024-01-07T06:08:15;2.20;99.90
39021;DHT22;25188;51.958;5.842;2024-01-07T06:10:41;2.20;99.90
39021;DHT22;25188;51.958;5.842;2024-01-07T06:13:07;2.20;99.90
39021;DHT22;25188;51.958;5.842;2024-01-07T06:15:33;2.30;99.90
39021;DHT22;25188;51.958;5.842;2024-01-07T06:17:59;2.20;99.90
39021;DHT22;25188;51.958;5.842;2024-01-07T06:20:25;2.20;99.90
39021;DHT22;25188;51.958;5.842;2024-01-07T06:22:50;2.30;99.90
39021;DHT22;25188;51.958;5.842;2024-01-07T06:25:16;2.20;99.90
39021;DHT22;25188;51.958;5.842;2024-01-07T06:27:42;2.20;99.90
39021;DHT22;25188;51.958;5.842;2024-01-07T06:30:08;2.20;99.90
39021;DHT22;25188;51.958;5.842;2024-01-07T06:32:34;2.20;99.90
39021;DHT22;25188;51.958;5.842;2024-01-07T06:35:01;2.20;99.90
39021;DHT22;25188;51.958;5.842;2024-01-07T06:37:28;2.30;99.90
39021;DHT22;25188;51.958;5.842;2024-01-07T06:39:56;2.20;99.90
39021;DHT22;25188;51.958;5.842;2024-01-07T06:42:22;2.20;99.90
39021;DHT22;25188;51.958;5.842;2024-01-07T06:44:47;2.20;99.90
39021;DHT22;25188;51.958;5.842;2024-01-07T06:47:13;2.20;99.90
39021;DHT22;25188;51.958;5.842;2024-01-07T06:49:40;2.20;99.90
39021;DHT22;25188;51.958;5.842;2024-01-07T06:52:06;2.20;99.90
39021;DHT22;25188;51.958;5.842;2024-01-07T06:54:31;2.20;99.90
39021;DHT22;25188;51.958;5.842;2024-01-07T06:56:58;2.20;99.90
39021;DHT22;25188;51.958;5.842;2024-01-07T06:59:24;2.20;99.90
39021;DHT22;25188;51.958;5.842;2024-01-07T07:01:50;2.20;99.90
39021;DHT22;25188;51.958;5.842;2024-01-07T07:04:16;2.20;99.90
39021;DHT22;25188;51.958;5.842;2024-01-07T07:06:41;2.20;99.90
39021;DHT22;25188;51.958;5.842;2024-01-07T07:09:07;2.20;99.90
39021;DHT22;25188;51.958;5.842;2024-01-07T07:11:33;2.20;99.90
39021;DHT22;25188;51.958;5.842;2024-01-07T07:13:58;2.10;99.90
39021;DHT22;25188;51.958;5.842;2024-01-07T07:16:24;2.10;99.90
39021;DHT22;25188;51.958;5.842;2024-01-07T07:18:51;2.10;99.90
39021;DHT22;25188;51.958;5.842;2024-01-07T07:21:16;2.10;99.90
39021;DHT22;25188;51.958;5.842;2024-01-07T07:23:42;2.10;99.90
39021;DHT22;25188;51.958;5.842;2024-01-07T07:26:08;2.10;99.90
39021;DHT22;25188;51.958;5.842;2024-01-07T07:28:35;2.10;99.90
39021;DHT22;25188;51.958;5.842;2024-01-07T07:31:00;2.10;99.90
39021;DHT22;25188;51.958;5.842;2024-01-07T07:33:26;2.10;99.90
39021;DHT22;25188;51.958;5.842;2024-01-07T07:35:52;2.10;99.90
39021;DHT22;25188;51.958;5.842;2024-01-07T07:38:17;2.10;99.90
39021;DHT22;25188;51.958;5.842;2024-01-07T07:40:43;2.10;99.90
39021;DHT22;25188;51.958;5.842;2024-01-07T07:43:10;2.10;99.90
39021;DHT22;25188;51.958;5.842;2024-01-07T07:45:36;2.10;99.90
39021;DHT22;25188;51.958;5.842;2024-01-07T07:48:01;2.20;99.90
39021;DHT22;25188;51.958;5.842;2024-01-07T07:50:27;2.10;99.90
39021;DHT22;25188;51.958;5.842;2024-01-07T07:52:53;2.10;99.90
39021;DHT22;25188;51.958;5.842;2024-01-07T07:55:19;2.10;99.90
39021;DHT22;25188;51.958;5.842;2024-01-07T07:57:44;2.10;99.90
39021;DHT22;25188;51.958;5.842;2024-01-07T08:00:12;2.10;99.90
39021;DHT22;25188;51.958;5.842;2024-01-07T08:02:38;2.10;99.90
39021;DHT22;25188;51.958;5.842;2024-01-07T08:05:06;2.10;99.90
39021;DHT22;25188;51.958;5.842;2024-01-07T08:07:32;2.10;99.90
39021;DHT22;25188;51.958;5.842;2024-01-07T08:09:58;2.10;99.90
39021;DHT22;25188;51.958;5.842;2024-01-07T08:12:24;2.10;99.90
39021;DHT22;25188;51.958;5.842;2024-01-07T08:14:49;2.10;99.90
39021;DHT22;25188;51.958;5.842;2024-01-07T08:17:15;2.10;99.90
39021;DHT22;25188;51.958;5.842;2024-01-07T08:19:42;2.10;99.90
39021;DHT22;25188;51.958;5.842;2024-01-07T08:22:08;2.10;99.90
39021;DHT22;25188;51.958;5.842;2024-01-07T08:24:34;2.00;99.90
39021;DHT22;25188;51.958;5.842;2024-01-07T08:27:01;2.10;99.90
39021;DHT22;25188;51.958;5.842;2024-01-07T08:29:28;2.10;99.90
39021;DHT22;25188;51.958;5.842;2024-01-07T08:31:54;2.10;99.90
39021;DHT22;25188;51.958;5.842;2024-01-07T08:34:20;2.10;99.90
39021;DHT22;25188;51.958;5.842;2024-01-07T08:36:45;2.00;99.90
39021;DHT22;25188;51.958;5.842;2024-01-07T08:39:14;2.00;99.90
39021;DHT22;25188;51.958;5.842;2024-01-07T08:41:40;2.00;99.90
39021;DHT22;25188;51.958;5.842;2024-01-07T08:44:05;1.90;99.90
39021;DHT22;25188;51.958;5.842;2024-01-07T08:46:34;1.90;99.90
39021;DHT22;25188;51.958;5.842;2024-01-07T08:48:59;1.90;99.90
39021;DHT22;25188;51.958;5.842;2024-01-07T08:51:25;1.90;99.90
39021;DHT22;25188;51.958;5.842;2024-01-07T08:53:51;1.90;99.90
39021;DHT22;25188;51.958;5.842;2024-01-07T08:56:16;1.90;99.90
39021;DHT22;25188;51.958;5.842;2024-01-07T08:58:42;2.00;99.90
39021;DHT22;25188;51.958;5.842;2024-01-07T09:01:08;2.00;99.90
39021;DHT22;25188;51.958;5.842;2024-01-07T09:03:33;2.00;99.90
39021;DHT22;25188;51.958;5.842;2024-01-07T09:05:59;2.00;99.90
39021;DHT22;25188;51.958;5.842;2024-01-07T09:08:25;2.00;99.90
39021;DHT22;25188;51.958;5.842;2024-01-07T09:10:50;2.00;99.90
39021;DHT22;25188;51.958;5.842;2024-01-07T09:13:16;2.00;99.90
39021;DHT22;25188;51.958;5.842;2024-01-07T09:15:42;2.00;99.90
39021;DHT22;25188;51.958;5.842;2024-01-07T09:18:07;2.00;99.90
39021;DHT22;25188;51.958;5.842;2024-01-07T09:20:33;2.00;99.90
39021;DHT22;25188;51.958;5.842;2024-01-07T09:22:59;2.00;99.90
39021;DHT22;25188;51.958;5.842;2024-01-07T09:25:25;2.00;99.90
39021;DHT22;25188;51.958;5.842;2024-01-07T09:27:51;2.00;99.90
39021;DHT22;25188;51.958;5.842;2024-01-07T09:30:17;2.00;99.90
39021;DHT22;25188;51.958;5.842;2024-01-07T09:32:43;1.90;99.90
39021;DHT22;25188;51.958;5.842;2024-01-07T09:35:09;2.00;99.90
39021;DHT22;25188;51.958;5.842;2024-01-07T09:37:35;2.00;99.90
39021;DHT22;25188;51.958;5.842;2024-01-07T09:40:01;2.00;99.90
39021;DHT22;25188;51.958;5.842;2024-01-07T09:42:27;2.00;99.90
39021;DHT22;25188;51.958;5.842;2024-01-07T09:44:53;2.10;99.90
39021;DHT22;25188;51.958;5.842;2024-01-07T09:47:19;2.00;99.90
39021;DHT22;25188;51.958;5.842;2024-01-07T09:49:46;2.10;99.90
39021;DHT22;25188;51.958;5.842;2024-01-07T09:52:12;2.10;99.90
39021;DHT22;25188;51.958;5.842;2024-01-07T09:54:39;2.20;99.90
39021;DHT22;25188;51.958;5.842;2024-01-07T09:57:06;2.20;99.90
39021;DHT22;25188;51.958;5.842;2024-01-07T09:59:33;2.30;99.90
39021;DHT22;25188;51.958;5.842;2024-01-07T10:01:59;2.20;99.90
39021;DHT22;25188;51.958;5.842;2024-01-07T10:04:25;2.30;99.90
39021;DHT22;25188;51.958;5.842;2024-01-07T10:06:51;2.30;99.90
39021;DHT22;25188;51.958;5.842;2024-01-07T10:09:20;2.30;99.90
39021;DHT22;25188;51.958;5.842;2024-01-07T10:11:47;2.30;99.90
39021;DHT22;25188;51.958;5.842;2024-01-07T10:14:13;2.30;99.90
39021;DHT22;25188;51.958;5.842;2024-01-07T10:16:39;2.20;99.90
39021;DHT22;25188;51.958;5.842;2024-01-07T10:19:05;2.30;99.90
39021;DHT22;25188;51.958;5.842;2024-01-07T10:21:33;2.30;99.90
39021;DHT22;25188;51.958;5.842;2024-01-07T10:24:11;2.30;99.80
39021;DHT22;25188;51.958;5.842;2024-01-07T10:26:38;2.30;99.60
39021;DHT22;25188;51.958;5.842;2024-01-07T10:29:05;2.30;99.70
39021;DHT22;25188;51.958;5.842;2024-01-07T10:31:34;2.30;99.10
39021;DHT22;25188;51.958;5.842;2024-01-07T10:34:00;2.30;99.10
39021;DHT22;25188;51.958;5.842;2024-01-07T10:36:25;2.30;98.70
39021;DHT22;25188;51.958;5.842;2024-01-07T10:38:51;2.40;98.70
39021;DHT22;25188;51.958;5.842;2024-01-07T10:41:21;2.40;98.80
39021;DHT22;25188;51.958;5.842;2024-01-07T10:43:48;2.60;99.50
39021;DHT22;25188;51.958;5.842;2024-01-07T10:46:15;2.70;99.60
39021;DHT22;25188;51.958;5.842;2024-01-07T10:49:04;2.80;99.80
39021;DHT22;25188;51.958;5.842;2024-01-07T10:51:33;3.10;99.90
39021;DHT22;25188;51.958;5.842;2024-01-07T10:53:59;3.20;99.00
39021;DHT22;25188;51.958;5.842;2024-01-07T10:56:38;3.30;98.50
39021;DHT22;25188;51.958;5.842;2024-01-07T10:59:05;3.50;99.30
39021;DHT22;25188;51.958;5.842;2024-01-07T11:01:31;3.70;98.10
39021;DHT22;25188;51.958;5.842;2024-01-07T11:04:06;3.80;98.80
39021;DHT22;25188;51.958;5.842;2024-01-07T11:06:43;3.90;97.30
39021;DHT22;25188;51.958;5.842;2024-01-07T11:09:21;3.90;96.50
39021;DHT22;25188;51.958;5.842;2024-01-07T11:11:49;3.80;95.20
39021;DHT22;25188;51.958;5.842;2024-01-07T11:14:37;3.80;95.20
39021;DHT22;25188;51.958;5.842;2024-01-07T11:17:08;3.80;94.80
39021;DHT22;25188;51.958;5.842;2024-01-07T11:19:35;3.60;94.50
39021;DHT22;25188;51.958;5.842;2024-01-07T11:22:23;3.60;94.70
39021;DHT22;25188;51.958;5.842;2024-01-07T11:24:57;3.60;94.80
39021;DHT22;25188;51.958;5.842;2024-01-07T11:27:23;3.60;94.40
39021;DHT22;25188;51.958;5.842;2024-01-07T11:30:05;3.60;93.50
39021;DHT22;25188;51.958;5.842;2024-01-07T11:32:33;3.70;94.60
39021;DHT22;25188;51.958;5.842;2024-01-07T11:35:00;4.00;95.10
39021;DHT22;25188;51.958;5.842;2024-01-07T11:37:26;4.20;95.60
39021;DHT22;25188;51.958;5.842;2024-01-07T11:39:56;4.50;96.30
39021;DHT22;25188;51.958;5.842;2024-01-07T11:42:25;4.80;96.30
39021;DHT22;25188;51.958;5.842;2024-01-07T11:44:54;5.20;95.80
39021;DHT22;25188;51.958;5.842;2024-01-07T11:47:22;5.50;95.30
39021;DHT22;25188;51.958;5.842;2024-01-07T11:49:49;5.90;95.10
39021;DHT22;25188;51.958;5.842;2024-01-07T11:52:15;6.20;95.40
39021;DHT22;25188;51.958;5.842;2024-01-07T11:54:41;6.50;94.20
39021;DHT22;25188;51.958;5.842;2024-01-07T11:57:07;6.70;92.40
39021;DHT22;25188;51.958;5.842;2024-01-07T11:59:34;6.90;91.40
39021;DHT22;25188;51.958;5.842;2024-01-07T12:02:00;6.90;89.90
39021;DHT22;25188;51.958;5.842;2024-01-07T12:04:26;6.90;89.10
39021;DHT22;25188;51.958;5.842;2024-01-07T12:06:52;7.20;90.90
39021;DHT22;25188;51.958;5.842;2024-01-07T12:09:17;7.60;90.20
39021;DHT22;25188;51.958;5.842;2024-01-07T12:11:44;8.00;90.50
39021;DHT22;25188;51.958;5.842;2024-01-07T12:14:10;8.40;90.50
39021;DHT22;25188;51.958;5.842;2024-01-07T12:16:37;8.70;88.90
39021;DHT22;25188;51.958;5.842;2024-01-07T12:19:03;9.00;86.80
39021;DHT22;25188;51.958;5.842;2024-01-07T12:21:28;9.40;87.70
39021;DHT22;25188;51.958;5.842;2024-01-07T12:23:55;9.90;88.90
39021;DHT22;25188;51.958;5.842;2024-01-07T12:26:26;10.40;86.50
39021;DHT22;25188;51.958;5.842;2024-01-07T12:28:53;10.90;84.60
39021;DHT22;25188;51.958;5.842;2024-01-07T12:31:20;11.40;83.10
39021;DHT22;25188;51.958;5.842;2024-01-07T12:33:47;11.90;85.30
39021;DHT22;25188;51.958;5.842;2024-01-07T12:36:13;12.60;85.40
39021;DHT22;25188;51.958;5.842;2024-01-07T12:38:40;13.00;82.20
39021;DHT22;25188;51.958;5.842;2024-01-07T12:41:06;13.50;79.70
39021;DHT22;25188;51.958;5.842;2024-01-07T12:43:32;13.80;78.40
39021;DHT22;25188;51.958;5.842;2024-01-07T12:45:58;14.10;71.10
39021;DHT22;25188;51.958;5.842;2024-01-07T12:48:30;14.20;65.90
39021;DHT22;25188;51.958;5.842;2024-01-07T12:50:56;14.00;59.80
39021;DHT22;25188;51.958;5.842;2024-01-07T12:53:22;13.50;59.50
39021;DHT22;25188;51.958;5.842;2024-01-07T12:55:48;12.80;54.60
39021;DHT22;25188;51.958;5.842;2024-01-07T12:58:13;11.80;57.80
39021;DHT22;25188;51.958;5.842;2024-01-07T13:00:39;10.90;58.40
39021;DHT22;25188;51.958;5.842;2024-01-07T13:03:06;10.30;59.50
39021;DHT22;25188;51.958;5.842;2024-01-07T13:05:34;10.20;61.30
39021;DHT22;25188;51.958;5.842;2024-01-07T13:07:59;10.10;60.20
39021;DHT22;25188;51.958;5.842;2024-01-07T13:10:25;10.40;63.20
39021;DHT22;25188;51.958;5.842;2024-01-07T13:12:52;10.90;65.00
39021;DHT22;25188;51.958;5.842;2024-01-07T13:15:18;11.40;64.30
39021;DHT22;25188;51.958;5.842;2024-01-07T13:17:44;11.40;62.20
39021;DHT22;25188;51.958;5.842;2024-01-07T13:20:11;11.10;61.30
39021;DHT22;25188;51.958;5.842;2024-01-07T13:22:38;10.70;60.90
39021;DHT22;25188;51.958;5.842;2024-01-07T13:25:07;10.20;60.80
39021;DHT22;25188;51.958;5.842;2024-01-07T13:27:33;9.80;58.70
39021;DHT22;25188;51.958;5.842;2024-01-07T13:30:00;9.20;59.00
39021;DHT22;25188;51.958;5.842;2024-01-07T13:32:25;8.60;59.90
39021;DHT22;25188;51.958;5.842;2024-01-07T13:34:51;8.10;60.20
39021;DHT22;25188;51.958;5.842;2024-01-07T13:37:17;7.60;61.50
39021;DHT22;25188;51.958;5.842;2024-01-07T13:39:43;7.30;61.80
39021;DHT22;25188;51.958;5.842;2024-01-07T13:42:08;7.10;63.60
39021;DHT22;25188;51.958;5.842;2024-01-07T13:44:34;7.50;65.70
39021;DHT22;25188;51.958;5.842;2024-01-07T13:47:00;8.20;67.00
39021;DHT22;25188;51.958;5.842;2024-01-07T13:49:30;9.00;67.20
39021;DHT22;25188;51.958;5.842;2024-01-07T13:51:56;9.60;65.50
39021;DHT22;25188;51.958;5.842;2024-01-07T13:54:22;10.00;65.20
39021;DHT22;25188;51.958;5.842;2024-01-07T13:56:47;10.20;64.40
39021;DHT22;25188;51.958;5.842;2024-01-07T13:59:13;10.50;64.40
39021;DHT22;25188;51.958;5.842;2024-01-07T14:01:39;10.50;62.40
39021;DHT22;25188;51.958;5.842;2024-01-07T14:04:05;10.00;58.70
39021;DHT22;25188;51.958;5.842;2024-01-07T14:06:31;9.50;58.50
39021;DHT22;25188;51.958;5.842;2024-01-07T14:08:57;8.90;59.20
39021;DHT22;25188;51.958;5.842;2024-01-07T14:11:23;8.40;59.60
39021;DHT22;25188;51.958;5.842;2024-01-07T14:13:49;8.00;60.60
39021;DHT22;25188;51.958;5.842;2024-01-07T14:16:14;7.60;60.80
39021;DHT22;25188;51.958;5.842;2024-01-07T14:18:40;7.20;61.90
39021;DHT22;25188;51.958;5.842;2024-01-07T14:21:06;6.90;62.10
39021;DHT22;25188;51.958;5.842;2024-01-07T14:23:33;6.60;62.40
39021;DHT22;25188;51.958;5.842;2024-01-07T14:25:59;6.40;63.00
39021;DHT22;25188;51.958;5.842;2024-01-07T14:28:25;6.20;63.40
39021;DHT22;25188;51.958;5.842;2024-01-07T14:30:51;6.00;63.90
39021;DHT22;25188;51.958;5.842;2024-01-07T14:33:17;5.80;64.20
39021;DHT22;25188;51.958;5.842;2024-01-07T14:35:43;5.70;64.50
39021;DHT22;25188;51.958;5.842;2024-01-07T14:38:08;5.60;64.90
39021;DHT22;25188;51.958;5.842;2024-01-07T14:40:34;5.40;65.40
39021;DHT22;25188;51.958;5.842;2024-01-07T14:43:00;5.30;65.90
39021;DHT22;25188;51.958;5.842;2024-01-07T14:45:26;5.20;65.90
39021;DHT22;25188;51.958;5.842;2024-01-07T14:47:52;5.10;66.40
39021;DHT22;25188;51.958;5.842;2024-01-07T14:50:19;5.00;66.70
39021;DHT22;25188;51.958;5.842;2024-01-07T14:52:45;5.00;66.90
39021;DHT22;25188;51.958;5.842;2024-01-07T14:55:11;4.90;67.10
39021;DHT22;25188;51.958;5.842;2024-01-07T14:57:38;4.90;67.90
39021;DHT22;25188;51.958;5.842;2024-01-07T15:00:05;4.80;67.80
39021;DHT22;25188;51.958;5.842;2024-01-07T15:02:31;4.70;67.70
39021;DHT22;25188;51.958;5.842;2024-01-07T15:04:57;4.70;68.40
39021;DHT22;25188;51.958;5.842;2024-01-07T15:07:24;4.60;68.40
39021;DHT22;25188;51.958;5.842;2024-01-07T15:09:50;4.50;68.80
39021;DHT22;25188;51.958;5.842;2024-01-07T15:12:16;4.40;68.90
39021;DHT22;25188;51.958;5.842;2024-01-07T15:14:41;4.40;69.20
39021;DHT22;25188;51.958;5.842;2024-01-07T15:17:07;4.40;69.50
39021;DHT22;25188;51.958;5.842;2024-01-07T15:19:33;4.20;69.60
39021;DHT22;25188;51.958;5.842;2024-01-07T15:21:59;4.20;69.70
39021;DHT22;25188;51.958;5.842;2024-01-07T15:24:25;4.10;70.10
39021;DHT22;25188;51.958;5.842;2024-01-07T15:26:50;4.00;70.40
39021;DHT22;25188;51.958;5.842;2024-01-07T15:29:16;4.00;70.80
39021;DHT22;25188;51.958;5.842;2024-01-07T15:31:43;3.90;70.80
39021;DHT22;25188;51.958;5.842;2024-01-07T15:34:09;3.80;71.00
39021;DHT22;25188;51.958;5.842;2024-01-07T15:36:35;3.70;71.40
39021;DHT22;25188;51.958;5.842;2024-01-07T15:39:02;3.60;71.90